Time,TemperatureF,DewpointF,PressureIn,WindDirection,WindDirectionDegrees,WindSpeedMPH,WindSpeedGustMPH,Humidity,HourlyPrecipIn,Conditions,Clouds,dailyrainin,SoftwareType,DateUTC
2013-05-04 00:04:00,59.6,41.9,30.13,North,0,0.0,0.0,52,0.00,CLR,,0.00,WeatherDisplay:10.37,2013-05-04 05:04:00,
2013-05-04 00:09:00,59.4,42.7,30.13,North,0,0.0,0.0,54,0.00,CLR,,0.00,WeatherDisplay:10.37,2013-05-04 05:09:00,
2013-05-04 00:14:00,59.4,42.7,30.13,North,0,0.0,0.0,54,0.00,CLR,,0.00,WeatherDisplay:10.37,2013-05-04 05:14:00,
2013-05-04 00:19:00,59.3,43.1,30.13,North,0,0.0,0.0,55,0.00,CLR,,0.00,WeatherDisplay:10.37,2013-05-04 05:19:00,
2013-05-04 00:24:00,59.3,44.1,30.13,North,0,0.0,0.0,57,0.00,CLR,,0.00,WeatherDisplay:10.37,2013-05-04 05:24:00,
2013-05-04 00:29:00,59.3,45.0,30.12,North,0,0.0,0.0,59,0.00,CLR,,0.00,WeatherDisplay:10.37,2013-05-04 05:29:00,
2013-05-04 00:34:00,59.1,45.2,30.12,ENE,64,2.9,4.4,60,0.00,CLR,,0.00,WeatherDisplay:10.37,2013-05-04 05:34:00,
2013-05-04 00:39:00,59.1,45.7,30.12,ENE,78,3.1,3.5,61,0.00,CLR,,0.00,WeatherDisplay:10.37,2013-05-04 05:39:00,
2013-05-04 00:44:00,58.9,46.3,30.12,ENE,73,4.1,5.8,63,0.00,CLR,,0.00,WeatherDisplay:10.37,2013-05-04 05:44:00,
2013-05-04 00:49:00,59.0,47.2,30.12,ENE,66,4.7,6.1,65,0.00,CLR,,0.00,WeatherDisplay:10.37,2013-05-04 05:49:00,
2013-05-04 00:54:00,59.2,47.0,30.12,ENE,75,4.6,6.9,64,0.00,CLR,,0.00,WeatherDisplay:10.37,2013-05-04 05:54:00,
2013-05-04 00:59:00,59.4,47.6,30.12,ENE,72,4.1,5.2,65,0.00,CLR,,0.00,WeatherDisplay:10.37,2013-05-04 05:59:00,
2013-05-04 01:04:00,59.6,47.4,30.12,East,80,3.7,5.8,64,0.00,CLR,,0.00,WeatherDisplay:10.37,2013-05-04 06:04:00,
2013-05-04 01:09:00,59.8,47.6,30.12,ENE,75,4.6,4.6,64,0.00,CLR,,0.00,WeatherDisplay:10.37,2013-05-04 06:09:00,
2013-05-04 01:14:00,60.1,48.3,30.12,East,82,4.2,5.8,65,0.00,CLR,,0.00,WeatherDisplay:10.37,2013-05-04 06:14:00,
2013-05-04 01:19:00,60.2,48.0,30.11,ENE,66,4.9,6.4,64,0.00,CLR,,0.00,WeatherDisplay:10.37,2013-05-04 06:19:00,
2013-05-04 01:24:00,60.2,47.1,30.11,East,79,4.9,6.9,62,0.00,CLR,,0.00,WeatherDisplay:10.37,2013-05-04 06:24:00,
2013-05-04 01:29:00,60.3,47.2,30.11,East,86,4.6,6.2,62,0.00,CLR,,0.00,WeatherDisplay:10.37,2013-05-04 06:29:00,
2013-05-04 01:34:00,60.4,46.9,30.11,East,86,5.0,6.9,61,0.00,CLR,,0.00,WeatherDisplay:10.37,2013-05-04 06:34:00,
2013-05-04 01:39:00,60.5,47.0,30.11,East,80,4.3,6.2,61,0.00,CLR,,0.00,WeatherDisplay:10.37,2013-05-04 06:39:00,
2013-05-04 01:44:00,60.5,46.5,30.11,ENE,71,4.1,5.2,60,0.00,CLR,,0.00,WeatherDisplay:10.37,2013-05-04 06:44:00,
2013-05-04 01:49:00,60.6,46.6,30.11,ENE,71,3.6,5.8,60,0.00,CLR,,0.00,WeatherDisplay:10.37,2013-05-04 06:49:00,
2013-05-04 01:54:00,60.6,46.6,30.11,ENE,78,3.7,4.6,60,0.00,CLR,,0.00,WeatherDisplay:10.37,2013-05-04 06:54:00,
2013-05-04 01:59:00,60.7,46.7,30.11,ENE,72,3.9,5.0,60,0.00,CLR,,0.00,WeatherDisplay:10.37,2013-05-04 06:59:00,
2013-05-04 02:04:00,60.6,46.6,30.10,ENE,72,4.2,5.8,60,0.00,CLR,,0.00,WeatherDisplay:10.37,2013-05-04 07:04:00,
2013-05-04 02:09:00,60.6,46.6,30.10,East,79,3.2,4.6,60,0.00,CLR,,0.00,WeatherDisplay:10.37,2013-05-04 07:09:00,
2013-05-04 02:14:00,60.6,46.6,30.10,ENE,78,3.7,4.6,60,0.00,CLR,,0.00,WeatherDisplay:10.37,2013-05-04 07:14:00,
2013-05-04 02:19:00,60.5,46.1,30.10,ENE,68,5.0,6.5,59,0.00,CLR,,0.00,WeatherDisplay:10.37,2013-05-04 07:19:00,
2013-05-04 02:24:00,60.5,45.6,30.09,East,80,4.6,5.8,58,0.00,CLR,,0.00,WeatherDisplay:10.37,2013-05-04 07:24:00,
2013-05-04 02:29:00,60.4,46.0,30.09,ENE,71,4.5,5.8,59,0.00,CLR,,0.00,WeatherDisplay:10.37,2013-05-04 07:29:00,
2013-05-04 02:34:00,60.3,45.5,30.09,ENE,75,4.1,5.8,58,0.00,CLR,,0.00,WeatherDisplay:10.37,2013-05-04 07:34:00,
2013-05-04 02:39:00,60.2,45.4,30.09,East,82,4.6,5.8,58,0.00,CLR,,0.00,WeatherDisplay:10.37,2013-05-04 07:39:00,
2013-05-04 02:44:00,60.2,46.3,30.09,ENE,73,3.9,4.6,60,0.00,CLR,,0.00,WeatherDisplay:10.37,2013-05-04 07:44:00,
2013-05-04 02:49:00,60.3,47.2,30.08,East,86,4.0,4.6,62,0.00,CLR,,0.00,WeatherDisplay:10.37,2013-05-04 07:49:00,
2013-05-04 02:54:00,60.4,47.7,30.08,East,86,4.0,6.9,63,0.00,CLR,,0.00,WeatherDisplay:10.37,2013-05-04 07:54:00,
2013-05-04 02:59:00,60.4,48.2,30.08,ENE,76,3.5,4.6,64,0.00,CLR,,0.00,WeatherDisplay:10.37,2013-05-04 07:59:00,
2013-05-04 03:04:00,60.4,48.6,30.08,ENE,72,3.4,4.6,65,0.00,CLR,,0.00,WeatherDisplay:10.37,2013-05-04 08:04:00,
2013-05-04 03:09:00,60.4,49.0,30.08,East,79,3.3,4.6,66,0.00,CLR,,0.00,WeatherDisplay:10.37,2013-05-04 08:09:00,
2013-05-04 03:14:00,60.5,49.1,30.08,ENE,73,3.2,3.7,66,0.00,CLR,,0.00,WeatherDisplay:10.37,2013-05-04 08:14:00,
2013-05-04 03:19:00,60.5,49.5,30.08,East,79,2.6,3.5,67,0.00,CLR,,0.00,WeatherDisplay:10.37,2013-05-04 08:19:00,
2013-05-04 03:24:00,60.3,49.7,30.08,East,90,2.4,3.5,68,0.00,CLR,,0.00,WeatherDisplay:10.37,2013-05-04 08:24:00,
2013-05-04 03:29:00,60.2,49.6,30.08,East,86,2.3,3.5,68,0.00,CLR,,0.00,WeatherDisplay:10.37,2013-05-04 08:29:00,
2013-05-04 03:34:00,60.0,49.8,30.08,ESE,102,2.6,3.9,69,0.00,CLR,,0.00,WeatherDisplay:10.37,2013-05-04 08:34:00,
2013-05-04 03:39:00,59.7,49.5,30.07,ESE,109,2.0,3.5,69,0.00,CLR,,0.00,WeatherDisplay:10.37,2013-05-04 08:39:00,
2013-05-04 03:44:00,59.6,49.4,30.07,ESE,104,0.0,0.0,69,0.00,CLR,,0.00,WeatherDisplay:10.37,2013-05-04 08:44:00,
2013-05-04 03:49:00,59.4,49.2,30.07,SE,138,1.7,2.5,69,0.00,CLR,,0.00,WeatherDisplay:10.37,2013-05-04 08:49:00,
2013-05-04 03:54:00,59.2,49.0,30.07,SE,130,1.5,3.6,69,0.00,CLR,,0.00,WeatherDisplay:10.37,2013-05-04 08:54:00,
2013-05-04 03:59:00,59.2,48.6,30.07,SE,131,0.0,0.0,68,0.00,CLR,,0.00,WeatherDisplay:10.37,2013-05-04 08:59:00,
2013-05-04 04:04:00,59.3,48.3,30.07,SE,131,0.0,0.0,67,0.00,CLR,,0.00,WeatherDisplay:10.37,2013-05-04 09:04:00,
2013-05-04 04:09:00,59.4,48.0,30.07,SE,131,0.0,0.0,66,0.00,CLR,,0.00,WeatherDisplay:10.37,2013-05-04 09:09:00,
2013-05-04 04:14:00,59.7,49.1,30.07,SSE,161,2.3,3.5,68,0.00,CLR,,0.00,WeatherDisplay:10.37,2013-05-04 09:14:00,
2013-05-04 04:19:00,59.7,49.1,30.06,South,169,1.2,3.5,68,0.00,CLR,,0.00,WeatherDisplay:10.37,2013-05-04 09:19:00,
2013-05-04 04:24:00,59.5,48.5,30.06,SE,127,2.7,3.7,67,0.00,CLR,,0.00,WeatherDisplay:10.37,2013-05-04 09:24:00,
2013-05-04 04:29:00,59.7,48.7,30.06,SSE,167,2.0,3.5,67,0.00,CLR,,0.00,WeatherDisplay:10.37,2013-05-04 09:29:00,
2013-05-04 04:34:00,60.0,48.2,30.06,SSE,164,4.1,4.7,65,0.00,CLR,,0.00,WeatherDisplay:10.37,2013-05-04 09:34:00,
2013-05-04 04:39:00,60.4,49.0,30.06,SSW,208,1.8,3.5,66,0.00,CLR,,0.00,WeatherDisplay:10.37,2013-05-04 09:39:00,
2013-05-04 04:44:00,60.5,49.9,30.06,SSW,198,1.7,3.5,68,0.00,CLR,,0.00,WeatherDisplay:10.37,2013-05-04 09:44:00,
2013-05-04 04:49:00,60.4,50.2,30.06,South,184,2.4,4.3,69,0.00,CLR,,0.00,WeatherDisplay:10.37,2013-05-04 09:49:00,
2013-05-04 04:54:00,60.3,50.1,30.06,SW,219,2.9,4.6,69,0.00,CLR,,0.00,WeatherDisplay:10.37,2013-05-04 09:54:00,
2013-05-04 04:59:00,60.2,50.0,30.06,SSW,202,2.1,3.5,69,0.00,CLR,,0.00,WeatherDisplay:10.37,2013-05-04 09:59:00,
2013-05-04 05:05:00,60.0,49.4,30.06,South,191,2.4,3.5,68,0.00,CLR,,0.00,WeatherDisplay:10.37,2013-05-04 10:05:00,
2013-05-04 05:10:00,60.1,48.3,30.06,SSW,192,4.5,6.1,65,0.00,CLR,,0.00,WeatherDisplay:10.37,2013-05-04 10:10:00,
2013-05-04 05:15:00,60.8,48.1,30.06,SSE,168,3.4,5.8,63,0.00,CLR,,0.00,WeatherDisplay:10.37,2013-05-04 10:15:00,
2013-05-04 05:20:00,61.3,48.6,30.07,South,176,3.0,3.5,63,0.00,CLR,,0.00,WeatherDisplay:10.37,2013-05-04 10:20:00,
2013-05-04 05:25:00,61.4,47.8,30.06,SSE,168,3.9,6.9,61,0.00,CLR,,0.00,WeatherDisplay:10.37,2013-05-04 10:25:00,
2013-05-04 05:30:00,61.6,48.4,30.06,SSE,167,3.5,4.7,62,0.00,CLR,,0.00,WeatherDisplay:10.37,2013-05-04 10:30:00,
2013-05-04 05:35:00,61.9,47.4,30.06,South,185,4.7,7.3,59,0.00,CLR,,0.00,WeatherDisplay:10.37,2013-05-04 10:35:00,
2013-05-04 05:40:00,62.3,48.2,30.06,South,179,4.8,6.9,60,0.00,CLR,,0.00,WeatherDisplay:10.37,2013-05-04 10:40:00,
2013-05-04 05:45:00,62.4,47.4,30.06,South,178,4.4,6.9,58,0.00,CLR,,0.00,WeatherDisplay:10.37,2013-05-04 10:45:00,
2013-05-04 05:50:00,62.6,47.6,30.06,SSE,154,5.0,8.1,58,0.00,CLR,,0.00,WeatherDisplay:10.37,2013-05-04 10:50:00,
2013-05-04 05:55:00,62.7,47.7,30.06,South,181,4.6,7.0,58,0.00,CLR,,0.00,WeatherDisplay:10.37,2013-05-04 10:55:00,
2013-05-04 06:00:00,62.9,47.9,30.06,South,189,5.1,8.1,58,0.00,CLR,,0.00,WeatherDisplay:10.37,2013-05-04 11:00:00,
2013-05-04 06:05:00,63.0,47.5,30.06,South,179,4.7,8.1,57,0.00,CLR,,0.00,WeatherDisplay:10.37,2013-05-04 11:05:00,
2013-05-04 06:10:00,62.9,47.9,30.06,South,176,3.4,5.8,58,0.00,CLR,,0.00,WeatherDisplay:10.37,2013-05-04 11:10:00,
2013-05-04 06:15:00,62.8,47.3,30.06,SSW,198,5.5,8.1,57,0.00,CLR,,0.00,WeatherDisplay:10.37,2013-05-04 11:15:00,
2013-05-04 06:20:00,62.7,47.7,30.06,SSE,147,5.5,8.1,58,0.00,CLR,,0.00,WeatherDisplay:10.37,2013-05-04 11:20:00,
2013-05-04 06:25:00,62.6,47.6,30.06,South,178,5.6,8.1,58,0.00,CLR,,0.00,WeatherDisplay:10.37,2013-05-04 11:25:00,
2013-05-04 06:30:00,62.5,48.0,30.06,SSE,158,5.2,8.1,59,0.00,CLR,,0.00,WeatherDisplay:10.37,2013-05-04 11:30:00,
2013-05-04 06:35:00,62.5,48.4,30.06,South,184,5.9,8.1,60,0.00,CLR,,0.00,WeatherDisplay:10.37,2013-05-04 11:35:00,
2013-05-04 06:40:00,62.5,48.9,30.06,South,189,4.7,6.9,61,0.00,CLR,,0.00,WeatherDisplay:10.37,2013-05-04 11:40:00,
2013-05-04 06:45:00,62.5,49.3,30.06,SSW,193,4.0,6.9,62,0.00,CLR,,0.00,WeatherDisplay:10.37,2013-05-04 11:45:00,
2013-05-04 06:50:00,62.5,49.7,30.06,SSW,203,4.0,6.9,63,0.00,CLR,,0.00,WeatherDisplay:10.37,2013-05-04 11:50:00,
2013-05-04 06:55:00,62.5,49.3,30.06,SSW,206,5.0,6.9,62,0.00,CLR,,0.00,WeatherDisplay:10.37,2013-05-04 11:55:00,
2013-05-04 07:00:00,62.6,49.0,30.06,South,186,5.8,8.1,61,0.00,CLR,,0.00,WeatherDisplay:10.37,2013-05-04 12:00:00,
2013-05-04 07:06:00,62.6,48.1,30.06,South,191,5.2,8.1,59,0.00,CLR,,0.00,WeatherDisplay:10.37,2013-05-04 12:06:00,
2013-05-04 07:11:00,62.8,47.3,30.06,South,186,7.4,9.2,57,0.00,CLR,,0.00,WeatherDisplay:10.37,2013-05-04 12:11:00,
2013-05-04 07:16:00,62.9,47.4,30.07,South,186,6.6,9.6,57,0.00,CLR,,0.00,WeatherDisplay:10.37,2013-05-04 12:16:00,
2013-05-04 07:21:00,63.0,47.5,30.07,SSW,198,6.3,8.4,57,0.00,CLR,,0.00,WeatherDisplay:10.37,2013-05-04 12:21:00,
2013-05-04 07:26:00,63.1,48.1,30.07,SSW,213,6.1,10.2,58,0.00,CLR,,0.00,WeatherDisplay:10.37,2013-05-04 12:26:00,
2013-05-04 07:31:00,63.4,48.4,30.07,South,191,6.6,9.2,58,0.00,CLR,,0.00,WeatherDisplay:10.37,2013-05-04 12:31:00,
2013-05-04 07:36:00,63.6,48.5,30.07,SSW,196,7.3,9.3,58,0.00,CLR,,0.00,WeatherDisplay:10.37,2013-05-04 12:36:00,
2013-05-04 07:41:00,63.8,47.8,30.07,SSE,168,7.2,9.6,56,0.00,CLR,,0.00,WeatherDisplay:10.37,2013-05-04 12:41:00,
2013-05-04 07:46:00,63.8,48.7,30.07,South,181,7.3,9.2,58,0.00,CLR,,0.00,WeatherDisplay:10.37,2013-05-04 12:46:00,
2013-05-04 07:51:00,63.8,48.7,30.07,SW,219,7.1,9.6,58,0.00,CLR,,0.00,WeatherDisplay:10.37,2013-05-04 12:51:00,
2013-05-04 07:56:00,64.1,47.6,30.07,SSW,199,8.2,12.3,55,0.00,CLR,,0.00,WeatherDisplay:10.37,2013-05-04 12:56:00,
2013-05-04 08:01:00,64.4,46.4,30.07,SSW,192,7.5,10.4,52,0.00,CLR,,0.00,WeatherDisplay:10.37,2013-05-04 13:01:00,
2013-05-04 08:05:00,64.8,46.8,30.07,South,184,7.6,11.5,52,0.00,CLR,,0.00,WeatherDisplay:10.37,2013-05-04 13:05:00,
2013-05-04 08:10:00,65.0,45.9,30.08,SSW,195,7.8,11.5,50,0.00,CLR,,0.00,WeatherDisplay:10.37,2013-05-04 13:10:00,
2013-05-04 08:15:00,65.3,46.2,30.07,SW,224,8.1,11.5,50,0.00,CLR,,0.00,WeatherDisplay:10.37,2013-05-04 13:15:00,
2013-05-04 08:20:00,65.6,46.5,30.07,SSW,195,7.7,10.4,50,0.00,CLR,,0.00,WeatherDisplay:10.37,2013-05-04 13:20:00,
2013-05-04 08:25:00,65.7,46.5,30.07,SSW,192,8.9,11.5,50,0.00,CLR,,0.00,WeatherDisplay:10.37,2013-05-04 13:25:00,
2013-05-04 08:30:00,65.8,46.1,30.08,SSW,209,7.9,12.7,49,0.00,CLR,,0.00,WeatherDisplay:10.37,2013-05-04 13:30:00,
2013-05-04 08:35:00,65.9,47.8,30.08,SSW,200,5.6,12.7,52,0.00,CLR,,0.00,WeatherDisplay:10.37,2013-05-04 13:35:00,
2013-05-04 08:40:00,65.9,48.3,30.08,SSW,213,8.6,11.5,53,0.00,CLR,,0.00,WeatherDisplay:10.37,2013-05-04 13:40:00,
2013-05-04 08:46:00,65.8,48.2,30.08,SW,227,8.7,11.5,53,0.00,CLR,,0.00,WeatherDisplay:10.37,2013-05-04 13:46:00,
2013-05-04 08:51:00,65.7,47.6,30.08,SSW,205,9.0,12.7,52,0.00,CLR,,0.00,WeatherDisplay:10.37,2013-05-04 13:51:00,
2013-05-04 08:56:00,65.4,47.8,30.08,SSW,213,8.8,13.2,53,0.00,CLR,,0.00,WeatherDisplay:10.37,2013-05-04 13:56:00,
2013-05-04 09:01:00,65.4,47.8,30.08,SW,217,7.2,13.8,53,0.00,CLR,,0.00,WeatherDisplay:10.37,2013-05-04 14:01:00,
2013-05-04 09:06:00,65.4,48.8,30.08,WSW,244,6.8,10.4,55,0.00,CLR,,0.00,WeatherDisplay:10.37,2013-05-04 14:06:00,
2013-05-04 09:11:00,65.2,48.6,30.08,SW,230,6.7,9.2,55,0.00,CLR,,0.00,WeatherDisplay:10.37,2013-05-04 14:11:00,
2013-05-04 09:16:00,65.0,48.9,30.08,WSW,257,5.4,9.2,56,0.00,CLR,,0.00,WeatherDisplay:10.37,2013-05-04 14:16:00,
2013-05-04 09:21:00,64.9,47.9,30.08,SW,222,9.3,12.9,54,0.00,CLR,,0.00,WeatherDisplay:10.37,2013-05-04 14:21:00,
2013-05-04 09:26:00,64.9,47.4,30.09,SW,215,8.0,11.5,53,0.00,CLR,,0.00,WeatherDisplay:10.37,2013-05-04 14:26:00,
2013-05-04 09:31:00,65.0,47.4,30.09,SW,224,6.1,9.2,53,0.00,CLR,,0.00,WeatherDisplay:10.37,2013-05-04 14:31:00,
2013-05-04 09:36:00,65.0,46.9,30.09,SW,226,8.5,11.5,52,0.00,CLR,,0.00,WeatherDisplay:10.37,2013-05-04 14:36:00,
2013-05-04 09:41:00,65.3,47.2,30.09,SW,229,7.7,11.5,52,0.00,CLR,,0.00,WeatherDisplay:10.37,2013-05-04 14:41:00,
2013-05-04 09:46:00,65.4,46.8,30.09,WSW,254,7.6,12.7,51,0.00,CLR,,0.00,WeatherDisplay:10.37,2013-05-04 14:46:00,
2013-05-04 09:51:00,65.7,47.6,30.09,WSW,253,5.9,9.4,52,0.00,CLR,,0.00,WeatherDisplay:10.37,2013-05-04 14:51:00,
2013-05-04 09:56:00,66.0,47.3,30.09,WSW,237,7.1,11.1,51,0.00,CLR,,0.00,WeatherDisplay:10.37,2013-05-04 14:56:00,
2013-05-04 10:01:00,66.2,47.0,30.09,SSW,209,7.9,11.2,50,0.00,CLR,,0.00,WeatherDisplay:10.37,2013-05-04 15:01:00,
2013-05-04 10:06:00,66.5,46.7,30.09,SSW,193,6.7,10.4,49,0.00,CLR,,0.00,WeatherDisplay:10.37,2013-05-04 15:06:00,
2013-05-04 10:11:00,66.9,45.4,30.09,SSW,196,9.6,12.7,46,0.00,CLR,,0.00,WeatherDisplay:10.37,2013-05-04 15:11:00,
2013-05-04 10:16:00,67.1,45.6,30.09,SW,215,9.4,12.7,46,0.00,CLR,,0.00,WeatherDisplay:10.37,2013-05-04 15:16:00,
2013-05-04 10:21:00,67.3,45.2,30.09,SW,215,8.9,11.5,45,0.00,CLR,,0.00,WeatherDisplay:10.37,2013-05-04 15:21:00,
2013-05-04 10:26:00,67.4,44.1,30.09,SW,216,7.8,12.7,43,0.00,CLR,,0.00,WeatherDisplay:10.37,2013-05-04 15:26:00,
2013-05-04 10:31:00,67.6,44.9,30.09,SW,217,10.0,12.7,44,0.00,CLR,,0.00,WeatherDisplay:10.37,2013-05-04 15:31:00,
2013-05-04 10:36:00,67.8,45.1,30.09,SW,215,9.1,13.8,44,0.00,CLR,,0.00,WeatherDisplay:10.37,2013-05-04 15:36:00,
2013-05-04 10:41:00,68.0,43.4,30.09,SSW,205,10.8,15.0,41,0.00,CLR,,0.00,WeatherDisplay:10.37,2013-05-04 15:41:00,
2013-05-04 10:46:00,68.1,44.1,30.09,SSW,208,10.4,15.5,42,0.00,CLR,,0.00,WeatherDisplay:10.37,2013-05-04 15:46:00,
2013-05-04 10:52:00,68.0,43.4,30.09,SW,232,10.3,13.8,41,0.00,CLR,,0.00,WeatherDisplay:10.37,2013-05-04 15:52:00,
2013-05-04 10:57:00,67.9,45.2,30.08,SSW,202,9.7,14.0,44,0.00,CLR,,0.00,WeatherDisplay:10.37,2013-05-04 15:57:00,
2013-05-04 11:02:00,68.0,44.7,30.08,SW,216,9.5,14.5,43,0.00,CLR,,0.00,WeatherDisplay:10.37,2013-05-04 16:02:00,
2013-05-04 11:07:00,68.1,44.7,30.08,South,182,9.5,14.4,43,0.00,CLR,,0.00,WeatherDisplay:10.37,2013-05-04 16:07:00,
2013-05-04 11:12:00,68.2,44.8,30.08,SSW,212,8.0,15.0,43,0.00,CLR,,0.00,WeatherDisplay:10.37,2013-05-04 16:12:00,
2013-05-04 11:17:00,68.2,45.4,30.08,SSW,195,6.6,13.8,44,0.00,CLR,,0.00,WeatherDisplay:10.37,2013-05-04 16:17:00,
2013-05-04 11:22:00,68.4,45.0,30.08,South,179,7.7,12.1,43,0.00,CLR,,0.00,WeatherDisplay:10.37,2013-05-04 16:22:00,
2013-05-04 11:27:00,68.6,45.8,30.08,South,188,7.1,12.7,44,0.00,CLR,,0.00,WeatherDisplay:10.37,2013-05-04 16:27:00,
2013-05-04 11:32:00,69.2,46.9,30.07,SSW,198,5.4,10.4,45,0.00,CLR,,0.00,WeatherDisplay:10.37,2013-05-04 16:32:00,
2013-05-04 11:37:00,69.2,46.4,30.07,South,175,8.4,12.7,44,0.00,CLR,,0.00,WeatherDisplay:10.37,2013-05-04 16:37:00,
2013-05-04 11:42:00,69.1,47.4,30.07,SSE,165,6.7,9.2,46,0.00,CLR,,0.00,WeatherDisplay:10.37,2013-05-04 16:42:00,
2013-05-04 11:47:00,69.3,47.0,30.07,South,174,5.6,9.2,45,0.00,CLR,,0.00,WeatherDisplay:10.37,2013-05-04 16:47:00,
2013-05-04 11:52:00,69.2,46.9,30.07,SSE,162,7.3,9.2,45,0.00,CLR,,0.00,WeatherDisplay:10.37,2013-05-04 16:52:00,
2013-05-04 11:57:00,69.6,44.8,30.07,SSE,167,7.4,10.4,41,0.00,CLR,,0.00,WeatherDisplay:10.37,2013-05-04 16:57:00,
2013-05-04 12:02:00,70.1,43.3,30.06,South,181,8.5,12.0,38,0.00,CLR,,0.00,WeatherDisplay:10.37,2013-05-04 17:02:00,
2013-05-04 12:07:00,70.5,43.7,30.06,SSW,200,6.9,12.7,38,0.00,CLR,,0.00,WeatherDisplay:10.37,2013-05-04 17:07:00,
2013-05-04 12:12:00,70.9,43.3,30.06,South,186,8.0,12.7,37,0.00,CLR,,0.00,WeatherDisplay:10.37,2013-05-04 17:12:00,
2013-05-04 12:17:00,71.4,43.0,30.06,South,174,8.3,12.0,36,0.00,CLR,,0.00,WeatherDisplay:10.37,2013-05-04 17:17:00,
2013-05-04 12:22:00,71.3,42.2,30.05,SSE,167,7.4,13.8,35,0.00,CLR,,0.00,WeatherDisplay:10.37,2013-05-04 17:22:00,
2013-05-04 12:27:00,71.3,41.5,30.05,SSW,208,9.0,14.4,34,0.00,CLR,,0.00,WeatherDisplay:10.37,2013-05-04 17:27:00,
2013-05-04 12:32:00,71.5,44.5,30.04,South,175,9.2,12.1,38,0.00,CLR,,0.00,WeatherDisplay:10.37,2013-05-04 17:32:00,
2013-05-04 12:37:00,71.5,45.9,30.04,SSE,151,8.2,13.8,40,0.00,CLR,,0.00,WeatherDisplay:10.37,2013-05-04 17:37:00,
2013-05-04 12:42:00,71.6,44.6,30.04,South,186,9.6,13.8,38,0.00,CLR,,0.00,WeatherDisplay:10.37,2013-05-04 17:42:00,
2013-05-04 12:47:00,71.9,45.6,30.04,South,171,8.5,13.8,39,0.00,CLR,,0.00,WeatherDisplay:10.37,2013-05-04 17:47:00,
2013-05-04 12:52:00,71.8,46.2,30.03,South,178,10.0,15.0,40,0.00,CLR,,0.00,WeatherDisplay:10.37,2013-05-04 17:52:00,
2013-05-04 12:57:00,71.7,46.1,30.03,SE,144,6.6,11.5,40,0.00,CLR,,0.00,WeatherDisplay:10.37,2013-05-04 17:57:00,
2013-05-04 13:02:00,72.2,45.9,30.03,South,178,7.2,10.5,39,0.00,CLR,,0.00,WeatherDisplay:10.37,2013-05-04 18:02:00,
2013-05-04 13:07:00,72.3,47.3,30.03,South,191,8.1,11.5,41,0.00,CLR,,0.00,WeatherDisplay:10.37,2013-05-04 18:07:00,
2013-05-04 13:12:00,72.2,46.5,30.03,SSE,164,8.0,11.5,40,0.00,CLR,,0.00,WeatherDisplay:10.37,2013-05-04 18:12:00,
2013-05-04 13:17:00,71.9,47.6,30.03,South,174,7.4,10.4,42,0.00,CLR,,0.00,WeatherDisplay:10.37,2013-05-04 18:17:00,
2013-05-04 13:18:00,71.8,46.8,30.03,SSE,165,8.9,11.9,41,0.00,CLR,,0.00,WeatherDisplay:10.37,2013-05-04 18:18:00,
2013-05-04 13:23:00,72.0,47.6,30.03,South,169,8.5,12.7,42,0.00,CLR,,0.00,WeatherDisplay:10.37,2013-05-04 18:23:00,
2013-05-04 13:28:00,72.0,47.0,30.02,SSE,157,9.6,12.7,41,0.00,CLR,,0.00,WeatherDisplay:10.37,2013-05-04 18:28:00,
2013-05-04 13:33:00,72.2,47.8,30.02,SE,143,8.4,13.8,42,0.00,CLR,,0.00,WeatherDisplay:10.37,2013-05-04 18:33:00,
2013-05-04 13:38:00,72.0,47.6,30.02,SSE,168,9.5,12.7,42,0.00,CLR,,0.00,WeatherDisplay:10.37,2013-05-04 18:38:00,
2013-05-04 13:43:00,71.9,46.3,30.02,South,182,9.2,13.8,40,0.00,CLR,,0.00,WeatherDisplay:10.37,2013-05-04 18:43:00,
2013-05-04 13:48:00,72.0,48.3,30.02,SSE,161,8.5,12.7,43,0.00,CLR,,0.00,WeatherDisplay:10.37,2013-05-04 18:48:00,
2013-05-04 13:53:00,72.5,47.5,30.02,South,185,7.3,13.8,41,0.00,CLR,,0.00,WeatherDisplay:10.37,2013-05-04 18:53:00,
2013-05-04 13:58:00,72.7,48.9,30.02,SSE,167,6.7,13.8,43,0.00,CLR,,0.00,WeatherDisplay:10.37,2013-05-04 18:58:00,
2013-05-04 14:03:00,72.4,46.7,30.02,SSE,147,8.6,12.7,40,0.00,CLR,,0.00,WeatherDisplay:10.37,2013-05-04 19:03:00,
2013-05-04 14:08:00,72.4,47.4,30.01,South,176,8.1,11.6,41,0.00,CLR,,0.00,WeatherDisplay:10.37,2013-05-04 19:08:00,
2013-05-04 14:13:00,72.2,48.5,30.01,South,176,7.6,14.7,43,0.00,CLR,,0.00,WeatherDisplay:10.37,2013-05-04 19:13:00,
2013-05-04 14:18:00,72.4,48.0,30.01,SSE,165,10.1,13.8,42,0.00,CLR,,0.00,WeatherDisplay:10.37,2013-05-04 19:18:00,
2013-05-04 14:23:00,72.6,48.8,30.00,South,188,9.7,13.4,43,0.00,CLR,,0.00,WeatherDisplay:10.37,2013-05-04 19:23:00,
2013-05-04 14:28:00,72.6,50.0,30.00,SSE,158,7.2,9.8,45,0.00,CLR,,0.00,WeatherDisplay:10.37,2013-05-04 19:28:00,
2013-05-04 14:33:00,72.9,48.5,30.00,SSE,161,7.8,12.7,42,0.00,CLR,,0.00,WeatherDisplay:10.37,2013-05-04 19:33:00,
2013-05-04 14:38:00,72.8,48.4,30.00,SSE,158,9.2,13.8,42,0.00,CLR,,0.00,WeatherDisplay:10.37,2013-05-04 19:38:00,
2013-05-04 14:43:00,72.9,50.3,30.00,SSE,164,9.0,13.3,45,0.00,CLR,,0.00,WeatherDisplay:10.37,2013-05-04 19:43:00,
2013-05-04 14:48:00,73.1,49.9,29.99,SE,133,9.2,13.8,44,0.00,CLR,,0.00,WeatherDisplay:10.37,2013-05-04 19:48:00,
2013-05-04 14:54:00,72.9,49.7,29.99,South,172,8.9,11.5,44,0.00,CLR,,0.00,WeatherDisplay:10.37,2013-05-04 19:54:00,
2013-05-04 14:59:00,73.0,51.6,29.99,South,178,8.3,12.8,47,0.00,CLR,,0.00,WeatherDisplay:10.37,2013-05-04 19:59:00,
2013-05-04 15:04:00,73.2,50.6,29.99,SSE,162,9.0,12.7,45,0.00,CLR,,0.00,WeatherDisplay:10.37,2013-05-04 20:04:00,
2013-05-04 15:09:00,73.4,50.2,29.99,SSE,168,9.5,13.8,44,0.00,CLR,,0.00,WeatherDisplay:10.37,2013-05-04 20:09:00,
2013-05-04 15:14:00,73.0,51.0,29.99,SSE,161,9.1,12.7,46,0.00,CLR,,0.00,WeatherDisplay:10.37,2013-05-04 20:14:00,
2013-05-04 15:19:00,73.0,49.8,29.98,ESE,114,9.5,15.0,44,0.00,CLR,,0.00,WeatherDisplay:10.37,2013-05-04 20:19:00,
2013-05-04 15:24:00,73.0,48.5,29.98,ESE,110,9.3,13.8,42,0.00,CLR,,0.00,WeatherDisplay:10.37,2013-05-04 20:24:00,
2013-05-04 15:29:00,72.8,49.6,29.98,SSE,152,8.5,13.8,44,0.00,CLR,,0.00,WeatherDisplay:10.37,2013-05-04 20:29:00,
2013-05-04 15:35:00,72.9,49.7,29.97,SSE,150,9.8,13.8,44,0.00,CLR,,0.00,WeatherDisplay:10.37,2013-05-04 20:35:00,
2013-05-04 15:40:00,73.3,50.1,29.97,South,188,6.4,12.7,44,0.00,CLR,,0.00,WeatherDisplay:10.37,2013-05-04 20:40:00,
2013-05-04 15:45:00,73.7,47.9,29.97,SE,141,9.0,14.3,40,0.00,CLR,,0.00,WeatherDisplay:10.37,2013-05-04 20:45:00,
2013-05-04 15:50:00,74.2,51.5,29.97,SSE,158,7.4,10.4,45,0.00,CLR,,0.00,WeatherDisplay:10.37,2013-05-04 20:50:00,
2013-05-04 15:55:00,74.1,49.5,29.96,SSE,152,9.9,14.3,42,0.00,CLR,,0.00,WeatherDisplay:10.37,2013-05-04 20:55:00,
2013-05-04 16:00:00,74.1,50.2,29.96,SSE,162,9.1,13.8,43,0.00,CLR,,0.00,WeatherDisplay:10.37,2013-05-04 21:00:00,
2013-05-04 16:05:00,74.1,50.2,29.96,SE,126,8.7,12.7,43,0.00,CLR,,0.00,WeatherDisplay:10.37,2013-05-04 21:05:00,
2013-05-04 16:10:00,73.9,50.0,29.96,SSE,155,10.8,16.1,43,0.00,CLR,,0.00,WeatherDisplay:10.37,2013-05-04 21:10:00,
2013-05-04 16:15:00,73.9,51.2,29.95,SSE,165,9.3,15.0,45,0.00,CLR,,0.00,WeatherDisplay:10.37,2013-05-04 21:15:00,
2013-05-04 16:20:00,73.7,49.8,29.95,ESE,113,10.2,17.3,43,0.00,CLR,,0.00,WeatherDisplay:10.37,2013-05-04 21:20:00,
2013-05-04 16:25:00,73.7,50.4,29.95,SSE,165,10.1,12.7,44,0.00,CLR,,0.00,WeatherDisplay:10.37,2013-05-04 21:25:00,
2013-05-04 16:30:00,73.4,50.2,29.95,SSE,148,10.5,15.1,44,0.00,CLR,,0.00,WeatherDisplay:10.37,2013-05-04 21:30:00,
2013-05-04 16:35:00,72.7,50.7,29.95,SSE,158,10.6,17.3,46,0.00,CLR,,0.00,WeatherDisplay:10.37,2013-05-04 21:35:00,
2013-05-04 16:40:00,72.4,51.6,29.95,SSE,152,11.7,16.4,48,0.00,CLR,,0.00,WeatherDisplay:10.37,2013-05-04 21:40:00,
2013-05-04 16:45:00,72.2,51.4,29.94,SSE,157,10.5,17.3,48,0.00,CLR,,0.00,WeatherDisplay:10.37,2013-05-04 21:45:00,
2013-05-04 16:50:00,71.8,51.0,29.94,SSE,150,10.7,16.1,48,0.00,CLR,,0.00,WeatherDisplay:10.37,2013-05-04 21:50:00,
2013-05-04 16:55:00,71.7,51.5,29.94,East,97,9.0,14.5,49,0.00,CLR,,0.00,WeatherDisplay:10.37,2013-05-04 21:55:00,
2013-05-04 17:00:00,71.6,51.4,29.93,SSE,155,9.7,15.0,49,0.00,CLR,,0.00,WeatherDisplay:10.37,2013-05-04 22:00:00,
2013-05-04 17:05:00,71.5,49.0,29.93,SE,140,9.9,13.8,45,0.00,CLR,,0.00,WeatherDisplay:10.37,2013-05-04 22:05:00,
2013-05-04 17:10:00,71.7,50.4,29.93,SE,141,10.7,17.3,47,0.00,CLR,,0.00,WeatherDisplay:10.37,2013-05-04 22:10:00,
2013-05-04 17:15:00,72.1,52.4,29.93,SE,137,8.8,15.4,50,0.00,CLR,,0.00,WeatherDisplay:10.37,2013-05-04 22:15:00,
2013-05-04 17:20:00,72.1,50.2,29.93,SE,137,10.3,18.4,46,0.00,CLR,,0.00,WeatherDisplay:10.37,2013-05-04 22:20:00,
2013-05-04 17:25:00,71.7,49.8,29.93,South,171,11.1,16.1,46,0.00,CLR,,0.00,WeatherDisplay:10.37,2013-05-04 22:25:00,
2013-05-04 17:30:00,71.5,49.6,29.93,ESE,119,10.9,17.3,46,0.00,CLR,,0.00,WeatherDisplay:10.37,2013-05-04 22:30:00,
2013-05-04 17:35:00,71.3,50.6,29.93,SSE,158,10.2,16.3,48,0.00,CLR,,0.00,WeatherDisplay:10.37,2013-05-04 22:35:00,
2013-05-04 17:40:00,71.3,51.1,29.93,SSE,160,9.4,15.0,49,0.00,CLR,,0.00,WeatherDisplay:10.37,2013-05-04 22:40:00,
2013-05-04 17:45:00,71.2,51.1,29.93,South,172,9.3,13.8,49,0.00,CLR,,0.00,WeatherDisplay:10.37,2013-05-04 22:45:00,
2013-05-04 17:50:00,71.0,50.3,29.93,SE,145,6.3,15.0,48,0.00,CLR,,0.00,WeatherDisplay:10.37,2013-05-04 22:50:00,
2013-05-04 17:55:00,71.0,48.0,29.92,SE,128,10.0,16.1,44,0.00,CLR,,0.00,WeatherDisplay:10.37,2013-05-04 22:55:00,
2013-05-04 18:00:00,70.8,50.1,29.92,SSE,155,7.8,16.2,48,0.00,CLR,,0.00,WeatherDisplay:10.37,2013-05-04 23:00:00,
2013-05-04 18:05:00,70.9,49.7,29.93,SE,133,7.3,15.0,47,0.00,CLR,,0.00,WeatherDisplay:10.37,2013-05-04 23:05:00,
2013-05-04 18:11:00,70.8,49.0,29.93,South,172,8.2,12.7,46,0.00,CLR,,0.00,WeatherDisplay:10.37,2013-05-04 23:11:00,
2013-05-04 18:16:00,70.8,49.0,29.93,SE,131,9.4,15.2,46,0.00,CLR,,0.00,WeatherDisplay:10.37,2013-05-04 23:16:00,
2013-05-04 18:21:00,70.6,50.5,29.93,SE,143,8.7,12.7,49,0.00,CLR,,0.00,WeatherDisplay:10.37,2013-05-04 23:21:00,
2013-05-04 18:26:00,70.3,50.8,29.93,SSE,168,9.1,15.0,50,0.00,CLR,,0.00,WeatherDisplay:10.37,2013-05-04 23:26:00,
2013-05-04 18:31:00,70.2,52.3,29.93,SSE,158,10.8,15.0,53,0.00,CLR,,0.00,WeatherDisplay:10.37,2013-05-04 23:31:00,
2013-05-04 18:36:00,70.1,52.7,29.93,SE,141,9.1,15.0,54,0.00,CLR,,0.00,WeatherDisplay:10.37,2013-05-04 23:36:00,
2013-05-04 18:41:00,69.9,49.9,29.93,SE,136,12.1,20.7,49,0.00,CLR,,0.00,WeatherDisplay:10.37,2013-05-04 23:41:00,
2013-05-04 18:46:00,69.8,50.3,29.93,SE,136,11.6,17.3,50,0.00,CLR,,0.00,WeatherDisplay:10.37,2013-05-04 23:46:00,
2013-05-04 18:51:00,69.7,50.8,29.93,South,175,8.6,19.6,51,0.00,CLR,,0.00,WeatherDisplay:10.37,2013-05-04 23:51:00,
2013-05-04 18:56:00,69.7,51.3,29.93,SE,141,9.5,15.0,52,0.00,CLR,,0.00,WeatherDisplay:10.37,2013-05-04 23:56:00,
2013-05-04 19:01:00,69.8,51.9,29.93,SSE,168,10.9,15.9,53,0.00,CLR,,0.00,WeatherDisplay:10.37,2013-05-05 00:01:00,
2013-05-04 19:06:00,69.5,50.0,29.93,South,175,10.9,20.7,50,0.00,CLR,,0.00,WeatherDisplay:10.37,2013-05-05 00:06:00,
2013-05-04 19:11:00,69.4,49.9,29.93,SSE,162,10.1,15.0,50,0.00,CLR,,0.00,WeatherDisplay:10.37,2013-05-05 00:11:00,
2013-05-04 19:16:00,69.5,50.6,29.93,SSE,165,10.2,15.0,51,0.00,CLR,,0.00,WeatherDisplay:10.37,2013-05-05 00:16:00,
2013-05-04 19:21:00,69.4,49.9,29.93,SSE,161,9.6,18.4,50,0.00,CLR,,0.00,WeatherDisplay:10.37,2013-05-05 00:21:00,
2013-05-04 19:26:00,69.3,49.9,29.93,SSE,154,10.6,15.0,50,0.00,CLR,,0.00,WeatherDisplay:10.37,2013-05-05 00:26:00,
2013-05-04 19:31:00,69.3,49.3,29.94,SE,134,10.5,16.1,49,0.00,CLR,,0.00,WeatherDisplay:10.37,2013-05-05 00:31:00,
2013-05-04 19:36:00,69.2,49.2,29.94,SE,145,10.6,17.3,49,0.00,CLR,,0.00,WeatherDisplay:10.37,2013-05-05 00:36:00,
2013-05-04 19:41:00,69.0,48.5,29.94,SE,124,12.8,20.2,48,0.00,CLR,,0.00,WeatherDisplay:10.37,2013-05-05 00:41:00,
2013-05-04 19:46:00,68.9,48.4,29.94,SSE,154,10.2,19.6,48,0.00,CLR,,0.00,WeatherDisplay:10.37,2013-05-05 00:46:00,
2013-05-04 19:51:00,69.0,50.1,29.94,SE,143,9.5,18.7,51,0.00,CLR,,0.00,WeatherDisplay:10.37,2013-05-05 00:51:00,
2013-05-04 19:56:00,68.8,51.0,29.94,SE,124,11.6,17.6,53,0.00,CLR,,0.00,WeatherDisplay:10.37,2013-05-05 00:56:00,
2013-05-04 20:01:00,68.7,50.4,29.94,South,189,11.5,18.3,52,0.00,CLR,,0.00,WeatherDisplay:10.37,2013-05-05 01:01:00,
2013-05-04 20:06:00,68.6,49.7,29.94,SE,137,10.6,17.3,51,0.00,CLR,,0.00,WeatherDisplay:10.37,2013-05-05 01:06:00,
2013-05-04 20:11:00,68.5,51.2,29.95,SE,124,10.1,18.4,54,0.00,CLR,,0.00,WeatherDisplay:10.37,2013-05-05 01:11:00,
2013-05-04 20:16:00,68.5,52.2,29.95,SE,143,12.1,17.5,56,0.00,CLR,,0.00,WeatherDisplay:10.37,2013-05-05 01:16:00,
2013-05-04 20:21:00,68.5,52.7,29.95,SSE,160,13.1,18.4,57,0.00,CLR,,0.00,WeatherDisplay:10.37,2013-05-05 01:21:00,
2013-05-04 20:26:00,68.5,53.6,29.95,SE,143,10.4,16.1,59,0.00,CLR,,0.00,WeatherDisplay:10.37,2013-05-05 01:26:00,
2013-05-04 20:32:00,68.4,54.0,29.95,South,169,10.5,16.1,60,0.00,CLR,,0.00,WeatherDisplay:10.37,2013-05-05 01:32:00,
2013-05-04 20:37:00,68.3,52.9,29.95,SSE,167,12.4,17.3,58,0.00,CLR,,0.00,WeatherDisplay:10.37,2013-05-05 01:37:00,
2013-05-04 20:42:00,68.3,52.9,29.96,SE,143,9.3,18.5,58,0.00,CLR,,0.00,WeatherDisplay:10.37,2013-05-05 01:42:00,
2013-05-04 20:47:00,68.3,52.9,29.96,SSE,152,10.8,17.3,58,0.00,CLR,,0.00,WeatherDisplay:10.37,2013-05-05 01:47:00,
2013-05-04 20:52:00,68.4,53.5,29.96,SE,130,10.6,15.0,59,0.00,CLR,,0.00,WeatherDisplay:10.37,2013-05-05 01:52:00,
2013-05-04 20:57:00,68.4,53.0,29.96,South,191,11.5,16.1,58,0.00,CLR,,0.00,WeatherDisplay:10.37,2013-05-05 01:57:00,
2013-05-04 21:02:00,68.4,53.5,29.97,SSE,158,8.1,16.1,59,0.00,CLR,,0.00,WeatherDisplay:10.37,2013-05-05 02:02:00,
2013-05-04 21:07:00,68.2,52.9,29.97,South,172,10.9,17.3,58,0.00,CLR,,0.00,WeatherDisplay:10.37,2013-05-05 02:07:00,
2013-05-04 21:12:00,68.2,52.9,29.97,SE,143,11.7,18.3,58,0.00,CLR,,0.00,WeatherDisplay:10.37,2013-05-05 02:12:00,
2013-05-04 21:17:00,68.2,53.3,29.97,South,175,11.8,16.1,59,0.00,CLR,,0.00,WeatherDisplay:10.37,2013-05-05 02:17:00,
2013-05-04 21:23:00,68.2,53.8,29.97,South,179,10.7,18.8,60,0.00,CLR,,0.00,WeatherDisplay:10.37,2013-05-05 02:23:00,
2013-05-04 21:28:00,68.2,53.8,29.97,SSE,167,12.1,17.3,60,0.00,CLR,,0.00,WeatherDisplay:10.37,2013-05-05 02:28:00,
2013-05-04 21:33:00,68.3,54.3,29.98,SSE,167,8.8,13.3,61,0.00,CLR,,0.00,WeatherDisplay:10.37,2013-05-05 02:33:00,
2013-05-04 21:38:00,68.3,54.8,29.98,South,182,11.2,15.0,62,0.00,CLR,,0.00,WeatherDisplay:10.37,2013-05-05 02:38:00,
2013-05-04 21:43:00,68.3,54.8,29.98,South,169,8.5,13.8,62,0.00,CLR,,0.00,WeatherDisplay:10.37,2013-05-05 02:43:00,
2013-05-04 21:48:00,68.1,54.6,29.98,South,172,10.9,18.4,62,0.00,CLR,,0.00,WeatherDisplay:10.37,2013-05-05 02:48:00,
2013-05-04 21:53:00,68.2,54.7,29.98,South,175,11.8,17.7,62,0.00,CLR,,0.00,WeatherDisplay:10.37,2013-05-05 02:53:00,
2013-05-04 21:58:00,68.2,54.7,29.99,SSE,164,11.6,16.1,62,0.00,CLR,,0.00,WeatherDisplay:10.37,2013-05-05 02:58:00,
2013-05-04 22:03:00,68.0,54.5,29.98,South,172,11.6,17.3,62,0.00,CLR,,0.00,WeatherDisplay:10.37,2013-05-05 03:03:00,
2013-05-04 22:08:00,68.3,55.2,29.99,SSE,168,11.3,16.1,63,0.00,CLR,,0.00,WeatherDisplay:10.37,2013-05-05 03:08:00,
2013-05-04 22:13:00,68.1,55.5,29.98,SSE,165,11.0,14.9,64,0.00,CLR,,0.00,WeatherDisplay:10.37,2013-05-05 03:13:00,
2013-05-04 22:18:00,68.0,55.4,29.99,SSE,168,11.4,16.1,64,0.00,CLR,,0.00,WeatherDisplay:10.37,2013-05-05 03:18:00,
2013-05-04 22:23:00,68.0,54.9,29.99,SSE,160,10.5,17.3,63,0.00,CLR,,0.00,WeatherDisplay:10.37,2013-05-05 03:23:00,
2013-05-04 22:28:00,68.0,54.9,29.99,SSE,160,13.1,18.4,63,0.00,CLR,,0.00,WeatherDisplay:10.37,2013-05-05 03:28:00,
2013-05-04 22:33:00,68.1,55.5,29.99,South,179,10.8,16.1,64,0.00,CLR,,0.00,WeatherDisplay:10.37,2013-05-05 03:33:00,
2013-05-04 22:38:00,68.1,56.3,29.99,SSE,165,7.7,13.8,66,0.00,CLR,,0.00,WeatherDisplay:10.37,2013-05-05 03:38:00,
2013-05-04 22:44:00,67.9,56.1,29.99,SE,145,9.4,13.8,66,0.00,CLR,,0.00,WeatherDisplay:10.37,2013-05-05 03:44:00,
2013-05-04 22:49:00,67.9,56.1,29.99,South,176,7.7,16.1,66,0.00,CLR,,0.00,WeatherDisplay:10.37,2013-05-05 03:49:00,
2013-05-04 22:54:00,67.7,55.9,29.99,South,171,9.4,15.0,66,0.00,CLR,,0.00,WeatherDisplay:10.37,2013-05-05 03:54:00,
2013-05-04 22:59:00,67.7,55.9,30.00,SSE,168,9.0,13.1,66,0.00,CLR,,0.00,WeatherDisplay:10.37,2013-05-05 03:59:00,
2013-05-04 23:01:00,67.7,55.5,30.00,South,186,10.8,15.0,65,0.00,CLR,,0.00,WeatherDisplay:10.37,2013-05-05 04:01:00,
2013-05-04 23:02:00,67.8,55.6,30.00,South,175,10.4,16.2,65,0.00,CLR,,0.00,WeatherDisplay:10.37,2013-05-05 04:02:00,
2013-05-04 23:03:00,67.7,55.5,30.00,South,175,9.8,16.1,65,0.00,CLR,,0.00,WeatherDisplay:10.37,2013-05-05 04:03:00,
2013-05-04 23:07:00,67.7,55.5,30.00,South,178,9.6,16.1,65,0.00,CLR,,0.00,WeatherDisplay:10.37,2013-05-05 04:07:00,
2013-05-04 23:12:00,67.8,56.0,30.00,South,176,8.8,12.7,66,0.00,CLR,,0.00,WeatherDisplay:10.37,2013-05-05 04:12:00,
2013-05-04 23:17:00,67.8,56.0,30.00,South,186,11.5,15.2,66,0.00,CLR,,0.00,WeatherDisplay:10.37,2013-05-05 04:17:00,
2013-05-04 23:22:00,67.8,56.4,30.00,SSW,196,6.2,11.5,67,0.00,CLR,,0.00,WeatherDisplay:10.37,2013-05-05 04:22:00,
2013-05-04 23:27:00,67.7,56.3,30.00,SSW,203,7.5,13.0,67,0.00,CLR,,0.00,WeatherDisplay:10.37,2013-05-05 04:27:00,
2013-05-04 23:32:00,67.8,57.3,30.00,SSE,160,8.4,13.8,69,0.00,CLR,,0.00,WeatherDisplay:10.37,2013-05-05 04:32:00,
2013-05-04 23:37:00,67.9,57.4,30.00,SSE,154,8.6,12.7,69,0.00,CLR,,0.00,WeatherDisplay:10.37,2013-05-05 04:37:00,
2013-05-04 23:42:00,67.7,56.8,30.00,SSE,160,9.9,15.5,68,0.00,CLR,,0.00,WeatherDisplay:10.37,2013-05-05 04:42:00,
2013-05-04 23:47:00,67.7,57.2,30.00,SSW,195,7.1,15.0,69,0.00,CLR,,0.00,WeatherDisplay:10.37,2013-05-05 04:47:00,
2013-05-04 23:52:00,67.8,57.3,30.00,South,171,7.1,15.0,69,0.00,CLR,,0.00,WeatherDisplay:10.37,2013-05-05 04:52:00,
2013-05-04 23:57:00,67.6,57.1,29.99,SSE,157,9.1,15.0,69,0.00,CLR,,0.00,WeatherDisplay:10.37,2013-05-05 04:57:00,